Latest Weather Observations for Mortlake

IDV60801

Issued at 11:02 pm EST Monday 6 July 2020 (issued every 10 minutes, with the page automatically refreshed every 10 minutes)

About weather observations | Map of weather stations | Latest weather observations for VIC | Other Formats
Station Details ID: 090176 Name: MORTLAKE RACECOURSE Lat: -38.07 Lon: 142.77 Height: 130.0 m
Data from the previous 72 hours. | See also: Recent months at Mortlake
Date/Time
EST
Temp
°C
App
Temp
°C
Dew
Point
°C
Rel
Hum
%
Delta-T
°C
Wind Press
QNH
hPa
Press
MSL
hPa
Rain since
9am
mm
Dir  Spd
km/h
Gust
km/h
Spd
kts
Gust
kts
06/11:00pm 9.1 8.2 9.1 100 0.0 SW 4 7 2 4 1032.7 1033.0 0.6
06/10:30pm 9.1 8.2 9.1 100 0.0 SW 4 4 2 2 1032.7 1033.0 0.6
06/10:00pm 9.4 8.2 9.4 100 0.0 SW 6 6 3 3 1032.6 1032.9 0.6
06/09:30pm 9.6 8.2 9.6 100 0.0 SSW 7 15 4 8 1032.7 1033.0 0.6
06/09:00pm 9.6 7.8 9.6 100 0.0 SSW 9 15 5 8 1032.7 1033.0 0.6
06/08:30pm 9.6 8.4 9.6 100 0.0 SW 6 7 3 4 1032.8 1033.1 0.6
06/08:00pm 9.6 7.5 9.6 100 0.0 SW 11 17 6 9 1032.7 1033.0 0.4
06/07:30pm 9.4 8.2 9.4 100 0.0 W 6 11 3 6 1032.5 1032.8 0.4
06/07:00pm 8.7 7.3 8.7 100 0.0 WSW 6 7 3 4 1032.3 1032.6 0.4
06/06:30pm 8.7 7.7 8.7 100 0.0 WSW 4 6 2 3 1032.0 1032.3 0.4
06/06:00pm 9.3 8.4 9.3 100 0.0 SW 4 6 2 3 1031.9 1032.2 0.4
06/05:30pm 10.3 9.1 10.3 100 0.0 SW 7 9 4 5 1031.9 1032.2 0.4
06/05:00pm 10.1 8.1 10.1 100 0.0 WSW 11 13 6 7 1031.6 1031.9 0.4
06/04:30pm 10.9 9.0 10.4 97 0.3 WSW 11 15 6 8 1031.5 1031.7 0.4
06/04:00pm 11.1 8.9 10.9 99 0.1 WSW 13 20 7 11 1031.5 1031.7 0.4
06/03:30pm 11.5 9.5 11.5 100 0.0 WSW 13 19 7 10 1031.4 1031.6 0.4
06/03:00pm 10.6 9.1 10.6 100 0.0 WSW 9 15 5 8 1031.4 1031.6 0.4
06/02:30pm 10.9 8.7 10.9 100 0.0 WSW 13 19 7 10 1031.4 1031.6 0.0
06/02:00pm 12.0 10.3 9.7 86 1.2 SW 9 13 5 7 1031.3 1031.5 0.0
06/01:30pm 11.8 9.2 9.2 84 1.3 WSW 13 19 7 10 1031.5 1031.7 0.0
06/01:00pm 12.2 10.4 9.6 84 1.3 WSW 9 17 5 9 1031.6 1031.9 0.0
06/12:30pm 11.7 9.9 10.9 95 0.4 WSW 11 15 6 8 1031.9 1032.2 0.0
06/12:00pm 11.4 10.1 11.2 99 0.1 WSW 9 15 5 8 1032.3 1032.6 0.0
06/11:30am 10.9 9.5 10.9 100 0.0 WSW 9 15 5 8 1032.4 1032.7 0.0
06/11:00am 10.4 8.5 10.4 100 0.0 W 11 17 6 9 1032.7 1033.0 0.0
06/10:30am 10.1 8.5 10.1 100 0.0 W 9 15 5 8 1032.7 1033.0 0.0
06/10:00am 9.5 8.1 9.5 100 0.0 W 7 11 4 6 1032.7 1033.0 0.0
06/09:30am 9.1 7.8 9.1 100 0.0 W 6 7 3 4 1032.6 1032.9 0.0
06/09:00am 8.8 6.8 8.8 100 0.0 WNW 9 13 5 7 1032.3 1032.6 0.2
06/08:30am 8.8 7.8 8.8 100 0.0 WSW 4 6 2 3 1032.1 1032.4 0.2
06/08:00am 8.6 7.5 8.6 100 0.0 WSW 4 6 2 3 1031.8 1032.1 0.2
06/07:30am 8.4 6.7 8.4 100 0.0 W 7 11 4 6 1031.7 1032.0 0.0
06/07:00am 8.3 6.8 8.3 100 0.0 WSW 6 6 3 3 1031.4 1031.6 0.0
06/06:30am 8.3 7.2 8.3 100 0.0 WSW 4 6 2 3 1031.1 1031.3 0.0
06/06:00am 8.7 7.1 8.7 100 0.0 SSW 7 9 4 5 1030.8 1031.0 0.0
06/05:30am 8.3 6.6 8.3 100 0.0 SSW 7 9 4 5 1030.5 1030.7 0.0
06/05:00am 8.1 6.5 8.1 100 0.0 SSW 6 7 3 4 1030.3 1030.5 0.0
06/04:30am 7.7 7.2 7.7 100 0.0 CALM 0 7 0 4 1030.4 1030.6 0.0
06/04:00am 7.4 6.0 7.4 100 0.0 SSW 4 4 2 2 1030.4 1030.6 0.0
06/03:30am 7.2 5.8 7.2 100 0.0 SSW 4 6 2 3 1030.3 1030.5 0.0
06/03:00am 7.2 6.2 7.2 100 0.0 SSW 2 4 1 2 1030.4 1030.6 0.0
06/02:30am 7.2 5.8 7.2 100 0.0 SSW 4 4 2 2 1030.4 1030.6 0.0
06/02:00am 7.3 6.3 7.3 100 0.0 SSW 2 2 1 1 1030.4 1030.6 0.0
06/01:30am 7.0 5.9 7.0 100 0.0 SSW 2 4 1 2 1030.2 1030.4 0.0
06/01:00am 6.4 4.8 6.4 100 0.0 SSW 4 6 2 3 1030.1 1030.3 0.0
06/12:30am 5.2 3.4 5.2 100 0.0 SSW 4 6 2 3 1030.3 1030.5 0.0
06/12:00am 4.2 2.2 4.2 100 0.0 SSW 4 6 2 3 1030.3 1030.5 0.0
 
Date/Time
EST
Temp
°C
App
Temp
°C
Dew
Point
°C
Rel
Hum
%
Delta-T
°C
Wind Press
QNH
hPa
Press
MSL
hPa
Rain since
9am
mm
Dir  Spd
km/h
Gust
km/h
Spd
kts
Gust
kts
05/11:30pm 5.5 3.3 5.5 100 0.0 SSW 6 7 3 4 1030.4 1030.6 0.0
05/11:00pm 7.0 5.5 7.0 100 0.0 SSW 4 6 2 3 1030.3 1030.5 0.0
05/10:30pm 6.9 5.4 6.9 100 0.0 SSW 4 4 2 2 1030.2 1030.4 0.0
05/10:00pm 7.3 5.9 7.3 100 0.0 SSW 4 6 2 3 1030.1 1030.3 0.0
05/09:30pm 7.3 5.9 7.3 100 0.0 SSW 4 6 2 3 1030.2 1030.4 0.0
05/09:00pm 7.7 5.8 7.7 100 0.0 SSW 7 9 4 5 1029.7 1030.0 0.0
05/08:30pm 8.2 7.4 8.2 100 0.0 SSW 2 6 1 3 1029.9 1030.1 0.0
05/08:00pm 8.2 7.8 8.2 100 0.0 CALM 0 0 0 0 1029.6 1029.9 0.0
05/07:30pm 8.4 6.7 8.4 100 0.0 SSW 7 11 4 6 1029.5 1029.8 0.0
05/07:00pm 8.5 6.5 8.5 100 0.0 WSW 9 13 5 7 1029.2 1029.5 0.0
05/06:30pm 8.4 5.9 8.4 100 0.0 WSW 11 15 6 8 1029.1 1029.4 0.0
05/06:00pm 8.4 5.9 8.4 100 0.0 SW 11 15 6 8 1028.7 1029.0 0.0
05/05:30pm 9.0 6.7 9.0 100 0.0 WSW 11 13 6 7 1028.4 1028.7 0.0
05/05:00pm 9.8 6.9 9.7 99 0.0 SW 15 24 8 13 1028.3 1028.6 0.0
05/04:30pm 10.0 7.9 9.7 98 0.2 SW 11 15 6 8 1028.1 1028.4 0.0
05/04:00pm 10.6 7.4 9.8 95 0.4 SSW 17 24 9 13 1028.1 1028.4 0.0
05/03:30pm 10.8 7.3 8.9 88 0.9 SW 17 22 9 12 1028.0 1028.3 0.0
05/03:00pm 11.1 8.1 9.2 88 0.9 SSW 15 20 8 11 1027.9 1028.2 0.0
05/02:30pm 11.6 8.0 9.9 89 0.9 SW 19 28 10 15 1027.7 1028.0 0.0
05/02:00pm 11.1 7.7 9.2 88 0.9 SSW 17 24 9 13 1027.7 1028.0 0.0
05/01:30pm 11.7 7.4 9.4 86 1.2 SW 22 30 12 16 1027.7 1028.0 0.0
05/01:00pm 11.6 6.8 9.0 84 1.3 SW 24 30 13 16 1028.0 1028.3 0.0
05/12:30pm 11.8 8.5 10.9 94 0.5 SW 19 26 10 14 1028.3 1028.6 0.0
05/12:00pm 10.9 6.7 9.8 93 0.6 SW 22 33 12 18 1028.7 1029.0 0.0
05/11:30am 10.8 7.0 9.9 94 0.5 SW 20 32 11 17 1028.7 1029.0 0.0
05/11:00am 10.9 7.7 9.8 93 0.6 SSW 17 22 9 12 1028.8 1029.1 0.0
05/10:30am 10.6 8.3 10.6 100 0.0 WSW 13 20 7 11 1029.0 1029.3 0.0
05/10:00am 9.7 8.0 9.7 100 0.0 WSW 9 13 5 7 1028.8 1029.1 0.0
05/09:30am 9.3 7.5 9.3 100 0.0 WSW 9 13 5 7 1028.5 1028.8 0.0
05/09:00am 8.9 6.6 8.9 100 0.0 W 11 17 6 9 1028.2 1028.5 2.2
05/08:30am 8.5 6.8 8.5 100 0.0 W 7 13 4 7 1028.0 1028.3 2.2
05/08:00am 8.3 6.6 8.3 100 0.0 W 7 11 4 6 1027.8 1028.1 2.0
05/07:30am 8.2 6.6 8.2 100 0.0 W 6 11 3 6 1027.6 1027.9 2.0
05/07:00am 8.3 6.2 8.3 100 0.0 WSW 9 15 5 8 1027.2 1027.5 2.0
05/06:30am 8.2 5.7 8.2 100 0.0 SW 11 15 6 8 1026.7 1027.0 2.0
05/06:00am 8.6 6.6 8.6 100 0.0 WSW 9 17 5 9 1026.5 1026.8 2.0
05/05:30am 8.7 5.9 8.7 100 0.0 WSW 13 17 7 9 1026.3 1026.6 2.0
05/05:00am 8.5 5.7 8.5 100 0.0 WSW 13 19 7 10 1026.2 1026.5 2.0
05/04:30am 8.8 6.8 8.8 100 0.0 W 9 15 5 8 1026.2 1026.5 2.0
05/04:00am 8.9 5.8 8.9 100 0.0 WSW 15 22 8 12 1026.2 1026.5 2.0
05/03:30am 8.7 6.7 8.7 100 0.0 W 9 13 5 7 1026.3 1026.6 2.0
05/03:00am 8.8 6.4 8.8 100 0.0 WSW 11 15 6 8 1026.6 1026.9 2.0
05/02:30am 9.1 7.2 9.1 100 0.0 WSW 9 13 5 7 1026.7 1027.0 2.0
05/02:00am 9.1 6.8 9.1 100 0.0 WSW 11 20 6 11 1026.5 1026.8 2.0
05/01:30am 9.2 7.3 9.2 100 0.0 W 9 13 5 7 1026.5 1026.8 1.6
05/01:00am 9.2 7.3 9.2 100 0.0 WSW 9 13 5 7 1026.6 1026.9 1.6
05/12:30am 9.3 7.1 9.3 100 0.0 WSW 11 17 6 9 1026.8 1027.1 1.6
05/12:00am 9.4 7.6 9.4 100 0.0 WSW 9 15 5 8 1026.9 1027.2 1.6
 
Date/Time
EST
Temp
°C
App
Temp
°C
Dew
Point
°C
Rel
Hum
%
Delta-T
°C
Wind Press
QNH
hPa
Press
MSL
hPa
Rain since
9am
mm
Dir  Spd
km/h
Gust
km/h
Spd
kts
Gust
kts
04/11:30pm 9.2 7.7 9.2 100 0.0 WSW 7 9 4 5 1026.8 1027.1 1.4
04/11:00pm 9.6 7.1 9.6 100 0.0 WSW 13 20 7 11 1026.8 1027.1 1.4
04/10:30pm 9.7 6.8 9.7 100 0.0 WSW 15 26 8 14 1026.6 1026.9 1.4
04/10:00pm 9.6 8.2 9.6 100 0.0 WSW 7 11 4 6 1026.7 1027.0 0.8
04/09:30pm 9.8 8.5 9.8 100 0.0 WSW 7 11 4 6 1026.7 1027.0 0.8
04/09:00pm 9.7 7.2 9.7 100 0.0 SW 13 17 7 9 1026.6 1026.9 0.8
04/08:30pm 10.0 8.0 10.0 100 0.0 SW 11 15 6 8 1026.5 1026.8 0.6
04/08:00pm 10.1 7.7 10.1 100 0.0 WSW 13 20 7 11 1026.3 1026.6 0.6
04/07:30pm 10.1 7.7 10.1 100 0.0 WSW 13 19 7 10 1026.2 1026.5 0.6
04/07:00pm 10.2 7.1 10.2 100 0.0 WSW 17 26 9 14 1026.1 1026.4 0.6
04/06:30pm 10.3 7.6 10.3 100 0.0 WSW 15 22 8 12 1025.9 1026.2 0.4
04/06:00pm 10.4 8.1 10.4 100 0.0 WSW 13 19 7 10 1025.5 1025.8 0.4
04/05:30pm 10.4 8.1 10.4 100 0.0 SW 13 20 7 11 1025.3 1025.6 0.4
04/05:00pm 10.5 7.1 10.5 100 0.0 SW 19 24 10 13 1025.2 1025.5 0.4
04/04:30pm 10.7 6.0 10.7 100 0.0 SW 26 35 14 19 1025.0 1025.2 0.4
04/04:00pm 11.0 6.8 11.0 100 0.0 SW 24 32 13 17 1024.9 1025.1 0.4
04/03:30pm 11.0 6.0 11.0 100 0.0 SW 28 37 15 20 1024.5 1024.7 0.4
04/03:00pm 11.3 7.2 11.3 100 0.0 SW 24 32 13 17 1024.4 1024.6 0.0
04/02:30pm 11.4 6.9 11.4 100 0.0 SW 26 37 14 20 1024.4 1024.6 0.0
04/02:00pm 12.1 6.8 10.0 87 1.1 SW 28 41 15 22 1024.5 1024.7 0.0
04/01:30pm 13.1 9.0 11.3 89 1.0 SW 24 32 13 17 1024.3 1024.5 0.0
04/01:00pm 12.4 6.8 10.3 87 1.1 SW 30 35 16 19 1024.4 1024.6 0.0
04/12:30pm 12.1 6.8 10.0 87 1.1 SW 28 37 15 20 1024.7 1024.9 0.0
04/12:00pm 12.2 9.3 12.2 100 0.0 WSW 19 28 10 15 1025.1 1025.3 0.0
04/11:30am 11.6 8.5 11.6 100 0.0 WSW 19 28 10 15 1025.4 1025.7 0.0
04/11:00am 10.9 7.6 10.9 100 0.0 WSW 19 28 10 15 1025.5 1025.8 0.0
04/10:30am 10.9 8.0 10.9 100 0.0 W 17 24 9 13 1025.5 1025.8 0.0
04/10:00am 10.4 8.1 10.4 100 0.0 W 13 24 7 13 1025.3 1025.6 0.0
04/09:30am 9.8 6.9 9.8 100 0.0 W 15 20 8 11 1025.1 1025.3 0.0
04/09:00am 9.0 6.3 9.0 100 0.0 W 13 19 7 10 1024.7 1024.9 6.6
04/08:30am 8.3 5.8 8.3 100 0.0 WNW 11 17 6 9 1024.4 1024.6 6.4
04/08:00am 7.8 4.4 7.8 100 0.0 WNW 15 20 8 11 1024.3 1024.5 6.4
04/07:30am 7.4 4.3 7.4 100 0.0 WNW 13 17 7 9 1024.2 1024.4 6.0
04/07:00am 7.2 4.5 7.2 100 0.0 WNW 11 17 6 9 1024.0 1024.2 6.0
04/06:30am 7.1 4.0 7.1 100 0.0 WNW 13 20 7 11 1023.8 1024.0 6.0
04/06:00am 6.9 3.7 6.9 100 0.0 WNW 13 19 7 10 1023.9 1024.1 6.0
04/05:30am 6.9 3.7 6.9 100 0.0 WNW 13 17 7 9 1023.9 1024.1 6.0
04/05:00am 6.7 3.5 6.7 100 0.0 WNW 13 17 7 9 1024.0 1024.2 5.8
04/04:30am 6.5 3.2 6.5 100 0.0 WNW 13 19 7 10 1024.1 1024.3 5.8
04/04:00am 6.3 3.0 6.3 100 0.0 WNW 13 19 7 10 1024.1 1024.3 5.2
04/03:30am 6.0 2.6 6.0 100 0.0 WNW 13 19 7 10 1024.4 1024.6 5.2
04/03:00am 5.8 2.8 5.8 100 0.0 WNW 11 13 6 7 1024.5 1024.7 5.2
04/02:30am 5.3 2.1 5.3 100 0.0 WNW 11 13 6 7 1024.9 1025.1 5.2
04/02:00am 5.0 2.2 5.0 100 0.0 WNW 9 13 5 7 1024.7 1024.9 5.2
04/01:30am 4.4 1.5 4.4 100 0.0 WNW 9 11 5 6 1024.7 1024.9 5.2
04/01:00am 4.1 1.1 4.1 100 0.0 WNW 9 11 5 6 1024.9 1025.1 5.2
04/12:30am 3.2 0.4 3.2 100 0.0 WNW 7 9 4 5 1024.7 1024.9 5.2
04/12:00am 4.3 2.2 4.0 98 0.1 WNW 4 7 2 4 1024.7 1024.9 5.2
 
Date/Time
EST
Temp
°C
App
Temp
°C
Dew
Point
°C
Rel
Hum
%
Delta-T
°C
Wind Press
QNH
hPa
Press
MSL
hPa
Rain since
9am
mm
Dir  Spd
km/h
Gust
km/h
Spd
kts
Gust
kts
03/11:30pm 5.7 2.9 5.0 95 0.3 W 9 15 5 8 1024.5 1024.7 5.2

Other formats

Comma delimited format used in spreadsheet applications
http://www.bom.gov.au/fwo/IDV60801/IDV60801.94840.axf

JavaScript Object Notation format (JSON) in row-major order
http://www.bom.gov.au/fwo/IDV60801/IDV60801.94840.json

Data quality

Most of these data are generated automatically and are frequently updated. Quality checks on data are not normally performed. It is possible for incorrect values to appear. Refer to information at About Latest Weather Observations and please check the disclaimer before using these data.